sensor_id;sensor_type;location;lat;lon;timestamp;P1;durP1;ratioP1;P2;durP2;ratioP2
51836;SDS011;38941;53.254;6.600;2024-02-28T00:01:52;46.33;;;15.07;;
51836;SDS011;38941;53.254;6.600;2024-02-28T00:03:53;44.00;;;14.57;;
51836;SDS011;38941;53.254;6.600;2024-02-28T00:05:54;57.65;;;17.48;;
51836;SDS011;38941;53.254;6.600;2024-02-28T00:07:56;48.22;;;15.57;;
51836;SDS011;38941;53.254;6.600;2024-02-28T00:09:59;52.00;;;15.45;;
51836;SDS011;38941;53.254;6.600;2024-02-28T00:12:01;46.17;;;16.55;;
51836;SDS011;38941;53.254;6.600;2024-02-28T00:14:08;49.85;;;15.25;;
51836;SDS011;38941;53.254;6.600;2024-02-28T00:16:09;47.22;;;16.20;;
51836;SDS011;38941;53.254;6.600;2024-02-28T00:18:11;48.85;;;16.35;;
51836;SDS011;38941;53.254;6.600;2024-02-28T00:20:14;45.67;;;15.90;;
51836;SDS011;38941;53.254;6.600;2024-02-28T00:24:19;51.10;;;16.73;;
51836;SDS011;38941;53.254;6.600;2024-02-28T00:26:20;49.70;;;16.58;;
51836;SDS011;38941;53.254;6.600;2024-02-28T00:28:22;50.03;;;15.55;;
51836;SDS011;38941;53.254;6.600;2024-02-28T00:30:33;48.05;;;15.95;;
51836;SDS011;38941;53.254;6.600;2024-02-28T00:32:39;47.92;;;15.15;;
51836;SDS011;38941;53.254;6.600;2024-02-28T00:34:40;55.28;;;15.02;;
51836;SDS011;38941;53.254;6.600;2024-02-28T00:36:41;49.35;;;16.92;;
51836;SDS011;38941;53.254;6.600;2024-02-28T00:38:42;53.97;;;15.70;;
51836;SDS011;38941;53.254;6.600;2024-02-28T00:40:49;55.35;;;14.90;;
51836;SDS011;38941;53.254;6.600;2024-02-28T00:42:51;44.35;;;14.70;;
51836;SDS011;38941;53.254;6.600;2024-02-28T00:44:52;50.15;;;15.55;;
51836;SDS011;38941;53.254;6.600;2024-02-28T00:46:54;54.53;;;15.88;;
51836;SDS011;38941;53.254;6.600;2024-02-28T00:48:57;51.97;;;16.35;;
51836;SDS011;38941;53.254;6.600;2024-02-28T00:50:58;54.47;;;18.17;;
51836;SDS011;38941;53.254;6.600;2024-02-28T00:53:04;51.65;;;15.23;;
51836;SDS011;38941;53.254;6.600;2024-02-28T00:55:07;49.25;;;16.15;;
51836;SDS011;38941;53.254;6.600;2024-02-28T00:57:08;53.80;;;16.80;;
51836;SDS011;38941;53.254;6.600;2024-02-28T00:59:10;45.47;;;15.48;;
51836;SDS011;38941;53.254;6.600;2024-02-28T01:01:12;49.45;;;15.40;;
51836;SDS011;38941;53.254;6.600;2024-02-28T01:03:19;49.88;;;17.13;;
51836;SDS011;38941;53.254;6.600;2024-02-28T01:05:20;50.85;;;17.90;;
51836;SDS011;38941;53.254;6.600;2024-02-28T01:07:23;40.65;;;14.63;;
51836;SDS011;38941;53.254;6.600;2024-02-28T01:09:26;43.80;;;14.60;;
51836;SDS011;38941;53.254;6.600;2024-02-28T01:11:28;41.60;;;15.43;;
51836;SDS011;38941;53.254;6.600;2024-02-28T01:13:30;34.53;;;12.40;;
51836;SDS011;38941;53.254;6.600;2024-02-28T01:15:33;35.60;;;14.48;;
51836;SDS011;38941;53.254;6.600;2024-02-28T01:17:34;34.63;;;14.02;;
51836;SDS011;38941;53.254;6.600;2024-02-28T01:19:34;39.15;;;16.15;;
51836;SDS011;38941;53.254;6.600;2024-02-28T01:21:35;41.15;;;13.90;;
51836;SDS011;38941;53.254;6.600;2024-02-28T01:23:36;37.78;;;14.32;;
51836;SDS011;38941;53.254;6.600;2024-02-28T01:25:39;37.22;;;14.63;;
51836;SDS011;38941;53.254;6.600;2024-02-28T01:27:40;34.17;;;13.13;;
51836;SDS011;38941;53.254;6.600;2024-02-28T01:29:41;37.28;;;12.65;;
51836;SDS011;38941;53.254;6.600;2024-02-28T01:31:45;37.97;;;14.43;;
51836;SDS011;38941;53.254;6.600;2024-02-28T01:33:47;36.22;;;13.30;;
51836;SDS011;38941;53.254;6.600;2024-02-28T01:35:49;33.47;;;12.90;;
51836;SDS011;38941;53.254;6.600;2024-02-28T01:37:49;34.17;;;13.55;;
51836;SDS011;38941;53.254;6.600;2024-02-28T01:39:56;38.47;;;13.98;;
51836;SDS011;38941;53.254;6.600;2024-02-28T01:41:58;39.28;;;13.65;;
51836;SDS011;38941;53.254;6.600;2024-02-28T01:44:05;35.17;;;13.23;;
51836;SDS011;38941;53.254;6.600;2024-02-28T01:46:17;37.00;;;14.60;;
51836;SDS011;38941;53.254;6.600;2024-02-28T01:48:27;33.78;;;13.32;;
51836;SDS011;38941;53.254;6.600;2024-02-28T01:50:28;37.05;;;14.27;;
51836;SDS011;38941;53.254;6.600;2024-02-28T01:52:30;35.90;;;14.52;;
51836;SDS011;38941;53.254;6.600;2024-02-28T01:54:38;36.60;;;13.48;;
51836;SDS011;38941;53.254;6.600;2024-02-28T01:56:39;41.23;;;14.70;;
51836;SDS011;38941;53.254;6.600;2024-02-28T01:58:40;38.22;;;14.15;;
51836;SDS011;38941;53.254;6.600;2024-02-28T02:00:48;38.70;;;13.70;;
51836;SDS011;38941;53.254;6.600;2024-02-28T02:02:50;37.45;;;14.40;;
51836;SDS011;38941;53.254;6.600;2024-02-28T02:07:00;37.15;;;13.40;;
51836;SDS011;38941;53.254;6.600;2024-02-28T02:09:08;36.88;;;13.80;;
51836;SDS011;38941;53.254;6.600;2024-02-28T02:11:12;37.92;;;14.02;;
51836;SDS011;38941;53.254;6.600;2024-02-28T02:13:16;36.70;;;15.27;;
51836;SDS011;38941;53.254;6.600;2024-02-28T02:15:18;34.25;;;12.50;;
51836;SDS011;38941;53.254;6.600;2024-02-28T02:17:19;33.25;;;13.85;;
51836;SDS011;38941;53.254;6.600;2024-02-28T02:19:22;32.53;;;12.75;;
51836;SDS011;38941;53.254;6.600;2024-02-28T02:21:23;38.60;;;13.52;;
51836;SDS011;38941;53.254;6.600;2024-02-28T02:23:30;37.75;;;13.38;;
51836;SDS011;38941;53.254;6.600;2024-02-28T02:25:32;38.22;;;15.05;;
51836;SDS011;38941;53.254;6.600;2024-02-28T02:27:34;42.55;;;14.68;;
51836;SDS011;38941;53.254;6.600;2024-02-28T02:29:35;37.80;;;13.15;;
51836;SDS011;38941;53.254;6.600;2024-02-28T02:33:49;36.67;;;13.73;;
51836;SDS011;38941;53.254;6.600;2024-02-28T02:37:55;38.13;;;13.63;;
51836;SDS011;38941;53.254;6.600;2024-02-28T02:39:57;42.00;;;14.15;;
51836;SDS011;38941;53.254;6.600;2024-02-28T02:41:59;35.20;;;13.98;;
51836;SDS011;38941;53.254;6.600;2024-02-28T02:44:01;37.33;;;13.32;;
51836;SDS011;38941;53.254;6.600;2024-02-28T02:46:02;38.75;;;14.43;;
51836;SDS011;38941;53.254;6.600;2024-02-28T02:48:03;38.67;;;14.68;;
51836;SDS011;38941;53.254;6.600;2024-02-28T02:50:05;39.88;;;13.95;;
51836;SDS011;38941;53.254;6.600;2024-02-28T02:52:08;38.50;;;14.45;;
51836;SDS011;38941;53.254;6.600;2024-02-28T02:54:15;35.90;;;13.82;;
51836;SDS011;38941;53.254;6.600;2024-02-28T02:56:18;35.25;;;13.65;;
51836;SDS011;38941;53.254;6.600;2024-02-28T02:58:19;38.17;;;13.55;;
51836;SDS011;38941;53.254;6.600;2024-02-28T03:00:20;40.42;;;14.00;;
51836;SDS011;38941;53.254;6.600;2024-02-28T03:02:27;34.92;;;14.55;;
51836;SDS011;38941;53.254;6.600;2024-02-28T03:04:30;38.63;;;14.30;;
51836;SDS011;38941;53.254;6.600;2024-02-28T03:06:30;37.50;;;14.00;;
51836;SDS011;38941;53.254;6.600;2024-02-28T03:08:32;42.35;;;14.43;;
51836;SDS011;38941;53.254;6.600;2024-02-28T03:10:35;39.63;;;13.70;;
51836;SDS011;38941;53.254;6.600;2024-02-28T03:12:37;37.50;;;14.63;;
51836;SDS011;38941;53.254;6.600;2024-02-28T03:14:39;39.90;;;13.82;;
51836;SDS011;38941;53.254;6.600;2024-02-28T03:16:43;40.15;;;15.27;;
51836;SDS011;38941;53.254;6.600;2024-02-28T03:18:44;37.83;;;13.70;;
51836;SDS011;38941;53.254;6.600;2024-02-28T03:20:51;42.10;;;13.45;;
51836;SDS011;38941;53.254;6.600;2024-02-28T03:22:59;32.20;;;13.23;;
51836;SDS011;38941;53.254;6.600;2024-02-28T03:25:02;36.40;;;14.35;;
51836;SDS011;38941;53.254;6.600;2024-02-28T03:27:03;41.45;;;15.43;;
51836;SDS011;38941;53.254;6.600;2024-02-28T03:29:04;36.05;;;13.38;;
51836;SDS011;38941;53.254;6.600;2024-02-28T03:31:06;38.03;;;13.50;;
51836;SDS011;38941;53.254;6.600;2024-02-28T03:33:08;36.92;;;13.70;;
51836;SDS011;38941;53.254;6.600;2024-02-28T03:35:10;39.78;;;14.23;;
51836;SDS011;38941;53.254;6.600;2024-02-28T03:39:23;37.30;;;14.30;;
51836;SDS011;38941;53.254;6.600;2024-02-28T03:41:25;34.80;;;12.77;;
51836;SDS011;38941;53.254;6.600;2024-02-28T03:43:26;32.90;;;14.32;;
51836;SDS011;38941;53.254;6.600;2024-02-28T03:45:36;37.95;;;14.23;;
51836;SDS011;38941;53.254;6.600;2024-02-28T03:49:58;35.75;;;14.15;;
51836;SDS011;38941;53.254;6.600;2024-02-28T03:52:00;33.65;;;14.55;;
51836;SDS011;38941;53.254;6.600;2024-02-28T03:54:01;37.58;;;14.85;;
51836;SDS011;38941;53.254;6.600;2024-02-28T03:56:04;38.20;;;14.20;;
51836;SDS011;38941;53.254;6.600;2024-02-28T03:58:11;37.55;;;13.90;;
51836;SDS011;38941;53.254;6.600;2024-02-28T04:00:14;34.83;;;13.07;;
51836;SDS011;38941;53.254;6.600;2024-02-28T04:02:17;39.17;;;13.95;;
51836;SDS011;38941;53.254;6.600;2024-02-28T04:04:18;33.05;;;12.63;;
51836;SDS011;38941;53.254;6.600;2024-02-28T04:06:21;38.90;;;13.95;;
51836;SDS011;38941;53.254;6.600;2024-02-28T04:08:22;42.28;;;16.40;;
51836;SDS011;38941;53.254;6.600;2024-02-28T04:10:24;35.97;;;13.40;;
51836;SDS011;38941;53.254;6.600;2024-02-28T04:12:26;35.85;;;13.90;;
51836;SDS011;38941;53.254;6.600;2024-02-28T04:14:33;36.72;;;14.82;;
51836;SDS011;38941;53.254;6.600;2024-02-28T04:18:50;36.33;;;13.90;;
51836;SDS011;38941;53.254;6.600;2024-02-28T04:20:52;34.88;;;14.00;;
51836;SDS011;38941;53.254;6.600;2024-02-28T04:22:54;43.72;;;15.98;;
51836;SDS011;38941;53.254;6.600;2024-02-28T04:24:57;36.78;;;13.50;;
51836;SDS011;38941;53.254;6.600;2024-02-28T04:26:58;39.83;;;13.55;;
51836;SDS011;38941;53.254;6.600;2024-02-28T04:29:01;39.05;;;15.98;;
51836;SDS011;38941;53.254;6.600;2024-02-28T04:31:07;33.10;;;14.05;;
51836;SDS011;38941;53.254;6.600;2024-02-28T04:33:17;35.70;;;12.98;;
51836;SDS011;38941;53.254;6.600;2024-02-28T04:35:26;36.70;;;13.63;;
51836;SDS011;38941;53.254;6.600;2024-02-28T04:37:29;36.13;;;13.80;;
51836;SDS011;38941;53.254;6.600;2024-02-28T04:39:30;40.28;;;14.73;;
51836;SDS011;38941;53.254;6.600;2024-02-28T04:41:32;32.45;;;13.70;;
51836;SDS011;38941;53.254;6.600;2024-02-28T04:43:34;33.42;;;14.15;;
51836;SDS011;38941;53.254;6.600;2024-02-28T04:45:37;37.35;;;13.90;;
51836;SDS011;38941;53.254;6.600;2024-02-28T04:47:46;37.90;;;13.77;;
51836;SDS011;38941;53.254;6.600;2024-02-28T04:49:47;35.78;;;13.52;;
51836;SDS011;38941;53.254;6.600;2024-02-28T04:51:50;36.67;;;13.80;;
51836;SDS011;38941;53.254;6.600;2024-02-28T04:53:51;35.45;;;13.50;;
51836;SDS011;38941;53.254;6.600;2024-02-28T04:55:53;38.28;;;14.70;;
51836;SDS011;38941;53.254;6.600;2024-02-28T04:57:54;41.58;;;14.75;;
51836;SDS011;38941;53.254;6.600;2024-02-28T04:59:55;40.15;;;13.70;;
51836;SDS011;38941;53.254;6.600;2024-02-28T05:01:57;35.35;;;14.80;;
51836;SDS011;38941;53.254;6.600;2024-02-28T05:03:58;40.08;;;15.32;;
51836;SDS011;38941;53.254;6.600;2024-02-28T05:06:00;38.30;;;15.05;;
51836;SDS011;38941;53.254;6.600;2024-02-28T05:08:01;36.92;;;14.05;;
51836;SDS011;38941;53.254;6.600;2024-02-28T05:10:04;33.63;;;13.57;;
51836;SDS011;38941;53.254;6.600;2024-02-28T05:12:06;37.58;;;14.65;;
51836;SDS011;38941;53.254;6.600;2024-02-28T05:14:07;38.50;;;14.27;;
51836;SDS011;38941;53.254;6.600;2024-02-28T05:16:13;34.97;;;13.57;;
51836;SDS011;38941;53.254;6.600;2024-02-28T05:18:15;34.85;;;14.23;;
51836;SDS011;38941;53.254;6.600;2024-02-28T05:20:16;33.67;;;13.35;;
51836;SDS011;38941;53.254;6.600;2024-02-28T05:22:16;33.53;;;13.52;;
51836;SDS011;38941;53.254;6.600;2024-02-28T05:24:17;36.00;;;14.00;;
51836;SDS011;38941;53.254;6.600;2024-02-28T05:26:24;41.58;;;14.68;;
51836;SDS011;38941;53.254;6.600;2024-02-28T05:28:33;38.47;;;14.80;;
51836;SDS011;38941;53.254;6.600;2024-02-28T05:30:38;36.05;;;14.25;;
51836;SDS011;38941;53.254;6.600;2024-02-28T05:32:41;37.22;;;14.00;;
51836;SDS011;38941;53.254;6.600;2024-02-28T05:34:42;39.35;;;14.18;;
51836;SDS011;38941;53.254;6.600;2024-02-28T05:36:44;38.92;;;14.13;;
51836;SDS011;38941;53.254;6.600;2024-02-28T05:38:46;40.97;;;15.50;;
51836;SDS011;38941;53.254;6.600;2024-02-28T05:40:47;40.30;;;14.98;;
51836;SDS011;38941;53.254;6.600;2024-02-28T05:42:48;39.90;;;15.77;;
51836;SDS011;38941;53.254;6.600;2024-02-28T05:44:51;42.45;;;15.20;;
51836;SDS011;38941;53.254;6.600;2024-02-28T05:46:53;35.70;;;15.10;;
51836;SDS011;38941;53.254;6.600;2024-02-28T05:48:54;42.13;;;15.85;;
51836;SDS011;38941;53.254;6.600;2024-02-28T05:50:55;42.53;;;15.68;;
51836;SDS011;38941;53.254;6.600;2024-02-28T05:52:57;41.00;;;15.68;;
51836;SDS011;38941;53.254;6.600;2024-02-28T05:54:57;44.92;;;17.23;;
51836;SDS011;38941;53.254;6.600;2024-02-28T05:56:58;44.83;;;15.73;;
51836;SDS011;38941;53.254;6.600;2024-02-28T05:59:00;40.45;;;15.43;;
51836;SDS011;38941;53.254;6.600;2024-02-28T06:01:01;40.97;;;15.93;;
51836;SDS011;38941;53.254;6.600;2024-02-28T06:03:01;41.28;;;16.42;;
51836;SDS011;38941;53.254;6.600;2024-02-28T06:05:02;48.22;;;17.20;;
51836;SDS011;38941;53.254;6.600;2024-02-28T06:07:03;48.10;;;16.08;;
51836;SDS011;38941;53.254;6.600;2024-02-28T06:09:06;42.58;;;15.95;;
51836;SDS011;38941;53.254;6.600;2024-02-28T06:11:07;52.00;;;18.23;;
51836;SDS011;38941;53.254;6.600;2024-02-28T06:13:08;51.53;;;17.92;;
51836;SDS011;38941;53.254;6.600;2024-02-28T06:15:09;48.45;;;16.50;;
51836;SDS011;38941;53.254;6.600;2024-02-28T06:17:11;44.75;;;15.90;;
51836;SDS011;38941;53.254;6.600;2024-02-28T06:19:15;39.47;;;16.20;;
51836;SDS011;38941;53.254;6.600;2024-02-28T06:21:17;41.15;;;15.93;;
51836;SDS011;38941;53.254;6.600;2024-02-28T06:23:17;45.17;;;16.65;;
51836;SDS011;38941;53.254;6.600;2024-02-28T06:25:19;49.88;;;18.17;;
51836;SDS011;38941;53.254;6.600;2024-02-28T06:27:23;44.72;;;14.63;;
51836;SDS011;38941;53.254;6.600;2024-02-28T06:29:27;42.05;;;15.80;;
51836;SDS011;38941;53.254;6.600;2024-02-28T06:31:30;48.05;;;17.48;;
51836;SDS011;38941;53.254;6.600;2024-02-28T06:33:31;52.95;;;15.50;;
51836;SDS011;38941;53.254;6.600;2024-02-28T06:35:33;43.65;;;15.65;;
51836;SDS011;38941;53.254;6.600;2024-02-28T06:37:35;41.53;;;15.90;;
51836;SDS011;38941;53.254;6.600;2024-02-28T06:39:38;52.38;;;16.88;;
51836;SDS011;38941;53.254;6.600;2024-02-28T06:41:40;49.00;;;15.98;;
51836;SDS011;38941;53.254;6.600;2024-02-28T06:43:41;49.55;;;17.83;;
51836;SDS011;38941;53.254;6.600;2024-02-28T06:45:42;41.67;;;15.80;;
51836;SDS011;38941;53.254;6.600;2024-02-28T06:47:43;52.95;;;17.83;;
51836;SDS011;38941;53.254;6.600;2024-02-28T06:49:45;50.30;;;15.85;;
51836;SDS011;38941;53.254;6.600;2024-02-28T06:51:50;46.72;;;15.63;;
51836;SDS011;38941;53.254;6.600;2024-02-28T06:53:53;48.17;;;16.23;;
51836;SDS011;38941;53.254;6.600;2024-02-28T06:55:56;47.55;;;16.67;;
51836;SDS011;38941;53.254;6.600;2024-02-28T06:57:58;43.22;;;16.15;;
51836;SDS011;38941;53.254;6.600;2024-02-28T06:59:59;51.28;;;16.85;;
51836;SDS011;38941;53.254;6.600;2024-02-28T07:01:59;46.05;;;17.63;;
51836;SDS011;38941;53.254;6.600;2024-02-28T07:04:00;52.08;;;16.42;;
51836;SDS011;38941;53.254;6.600;2024-02-28T07:06:01;62.53;;;17.60;;
51836;SDS011;38941;53.254;6.600;2024-02-28T07:08:02;55.47;;;17.73;;
51836;SDS011;38941;53.254;6.600;2024-02-28T07:10:03;53.72;;;17.30;;
51836;SDS011;38941;53.254;6.600;2024-02-28T07:12:11;57.38;;;18.55;;
51836;SDS011;38941;53.254;6.600;2024-02-28T07:14:13;63.67;;;18.85;;
51836;SDS011;38941;53.254;6.600;2024-02-28T07:16:15;49.67;;;15.63;;
51836;SDS011;38941;53.254;6.600;2024-02-28T07:18:16;56.35;;;18.90;;
51836;SDS011;38941;53.254;6.600;2024-02-28T07:20:16;62.10;;;17.98;;
51836;SDS011;38941;53.254;6.600;2024-02-28T07:22:18;65.70;;;19.05;;
51836;SDS011;38941;53.254;6.600;2024-02-28T07:24:19;53.67;;;16.83;;
51836;SDS011;38941;53.254;6.600;2024-02-28T07:26:20;67.60;;;19.10;;
51836;SDS011;38941;53.254;6.600;2024-02-28T07:28:21;69.43;;;18.10;;
51836;SDS011;38941;53.254;6.600;2024-02-28T07:30:22;62.50;;;18.35;;
51836;SDS011;38941;53.254;6.600;2024-02-28T07:32:22;66.05;;;19.15;;
51836;SDS011;38941;53.254;6.600;2024-02-28T07:34:24;68.82;;;20.00;;
51836;SDS011;38941;53.254;6.600;2024-02-28T07:36:25;56.83;;;18.90;;
51836;SDS011;38941;53.254;6.600;2024-02-28T07:38:27;62.95;;;19.58;;
51836;SDS011;38941;53.254;6.600;2024-02-28T07:40:28;68.50;;;19.98;;
51836;SDS011;38941;53.254;6.600;2024-02-28T07:42:30;51.30;;;18.05;;
51836;SDS011;38941;53.254;6.600;2024-02-28T07:44:31;64.70;;;19.33;;
51836;SDS011;38941;53.254;6.600;2024-02-28T07:46:32;81.45;;;21.40;;
51836;SDS011;38941;53.254;6.600;2024-02-28T07:48:33;59.92;;;20.33;;
51836;SDS011;38941;53.254;6.600;2024-02-28T07:50:34;67.32;;;21.25;;
51836;SDS011;38941;53.254;6.600;2024-02-28T07:52:34;55.63;;;20.50;;
51836;SDS011;38941;53.254;6.600;2024-02-28T07:54:37;59.40;;;19.63;;
51836;SDS011;38941;53.254;6.600;2024-02-28T07:56:38;59.85;;;20.02;;
51836;SDS011;38941;53.254;6.600;2024-02-28T07:58:38;65.70;;;18.70;;
51836;SDS011;38941;53.254;6.600;2024-02-28T08:00:40;52.17;;;18.92;;
51836;SDS011;38941;53.254;6.600;2024-02-28T08:02:41;51.45;;;18.52;;
51836;SDS011;38941;53.254;6.600;2024-02-28T08:04:42;51.88;;;18.75;;
51836;SDS011;38941;53.254;6.600;2024-02-28T08:06:44;46.30;;;18.30;;
51836;SDS011;38941;53.254;6.600;2024-02-28T08:08:45;58.30;;;18.13;;
51836;SDS011;38941;53.254;6.600;2024-02-28T08:10:48;48.78;;;18.02;;
51836;SDS011;38941;53.254;6.600;2024-02-28T08:12:51;45.75;;;18.05;;
51836;SDS011;38941;53.254;6.600;2024-02-28T08:14:52;48.42;;;18.08;;
51836;SDS011;38941;53.254;6.600;2024-02-28T08:16:53;49.22;;;18.50;;
51836;SDS011;38941;53.254;6.600;2024-02-28T08:18:54;46.28;;;16.88;;
51836;SDS011;38941;53.254;6.600;2024-02-28T08:20:55;45.55;;;17.15;;
51836;SDS011;38941;53.254;6.600;2024-02-28T08:22:57;37.50;;;16.02;;
51836;SDS011;38941;53.254;6.600;2024-02-28T08:24:59;44.50;;;16.45;;
51836;SDS011;38941;53.254;6.600;2024-02-28T08:27:00;47.72;;;16.45;;
51836;SDS011;38941;53.254;6.600;2024-02-28T08:29:01;41.70;;;16.02;;
51836;SDS011;38941;53.254;6.600;2024-02-28T08:31:02;39.80;;;17.05;;
51836;SDS011;38941;53.254;6.600;2024-02-28T08:33:05;43.40;;;18.02;;
51836;SDS011;38941;53.254;6.600;2024-02-28T08:35:08;45.40;;;15.68;;
51836;SDS011;38941;53.254;6.600;2024-02-28T08:37:11;44.55;;;15.38;;
51836;SDS011;38941;53.254;6.600;2024-02-28T08:39:16;44.03;;;17.73;;
51836;SDS011;38941;53.254;6.600;2024-02-28T08:41:16;42.50;;;16.50;;
51836;SDS011;38941;53.254;6.600;2024-02-28T08:43:18;41.58;;;16.27;;
51836;SDS011;38941;53.254;6.600;2024-02-28T08:45:19;36.13;;;14.95;;
51836;SDS011;38941;53.254;6.600;2024-02-28T08:47:24;40.45;;;15.40;;
51836;SDS011;38941;53.254;6.600;2024-02-28T08:49:25;39.08;;;15.77;;
51836;SDS011;38941;53.254;6.600;2024-02-28T08:51:26;45.25;;;17.00;;
51836;SDS011;38941;53.254;6.600;2024-02-28T08:53:27;38.50;;;15.73;;
51836;SDS011;38941;53.254;6.600;2024-02-28T08:55:28;48.38;;;17.30;;
51836;SDS011;38941;53.254;6.600;2024-02-28T08:57:29;34.75;;;14.68;;
51836;SDS011;38941;53.254;6.600;2024-02-28T08:59:30;40.47;;;17.25;;
51836;SDS011;38941;53.254;6.600;2024-02-28T09:01:31;42.97;;;14.68;;
51836;SDS011;38941;53.254;6.600;2024-02-28T09:03:35;39.17;;;15.75;;
51836;SDS011;38941;53.254;6.600;2024-02-28T09:05:37;37.63;;;16.25;;
51836;SDS011;38941;53.254;6.600;2024-02-28T09:07:38;37.30;;;15.13;;
51836;SDS011;38941;53.254;6.600;2024-02-28T09:09:42;34.15;;;15.18;;
51836;SDS011;38941;53.254;6.600;2024-02-28T09:11:43;36.35;;;15.98;;
51836;SDS011;38941;53.254;6.600;2024-02-28T09:13:44;35.63;;;15.48;;
51836;SDS011;38941;53.254;6.600;2024-02-28T09:15:46;38.42;;;15.35;;
51836;SDS011;38941;53.254;6.600;2024-02-28T09:17:46;39.55;;;15.65;;
51836;SDS011;38941;53.254;6.600;2024-02-28T09:19:47;34.58;;;14.55;;
51836;SDS011;38941;53.254;6.600;2024-02-28T09:21:48;34.60;;;14.23;;
51836;SDS011;38941;53.254;6.600;2024-02-28T09:23:49;36.30;;;14.40;;
51836;SDS011;38941;53.254;6.600;2024-02-28T09:25:50;38.15;;;16.10;;
51836;SDS011;38941;53.254;6.600;2024-02-28T09:27:51;37.00;;;15.80;;
51836;SDS011;38941;53.254;6.600;2024-02-28T09:29:52;37.05;;;15.25;;
51836;SDS011;38941;53.254;6.600;2024-02-28T09:31:54;41.55;;;16.70;;
51836;SDS011;38941;53.254;6.600;2024-02-28T09:33:54;43.60;;;16.80;;
51836;SDS011;38941;53.254;6.600;2024-02-28T09:36:01;37.65;;;15.80;;
51836;SDS011;38941;53.254;6.600;2024-02-28T09:38:02;36.83;;;14.65;;
51836;SDS011;38941;53.254;6.600;2024-02-28T09:40:03;35.70;;;15.48;;
51836;SDS011;38941;53.254;6.600;2024-02-28T09:42:06;40.38;;;17.02;;
51836;SDS011;38941;53.254;6.600;2024-02-28T09:44:09;40.05;;;16.17;;
51836;SDS011;38941;53.254;6.600;2024-02-28T09:46:11;35.97;;;14.98;;
51836;SDS011;38941;53.254;6.600;2024-02-28T09:48:12;35.28;;;14.75;;
51836;SDS011;38941;53.254;6.600;2024-02-28T09:50:15;39.92;;;16.35;;
51836;SDS011;38941;53.254;6.600;2024-02-28T09:52:17;40.30;;;16.65;;
51836;SDS011;38941;53.254;6.600;2024-02-28T09:54:19;39.90;;;15.45;;
51836;SDS011;38941;53.254;6.600;2024-02-28T09:56:20;39.92;;;16.40;;
51836;SDS011;38941;53.254;6.600;2024-02-28T09:58:23;33.30;;;15.00;;
51836;SDS011;38941;53.254;6.600;2024-02-28T10:00:29;35.00;;;14.45;;
51836;SDS011;38941;53.254;6.600;2024-02-28T10:02:31;39.22;;;16.15;;
51836;SDS011;38941;53.254;6.600;2024-02-28T10:04:35;41.25;;;16.25;;
51836;SDS011;38941;53.254;6.600;2024-02-28T10:06:37;35.60;;;16.50;;
51836;SDS011;38941;53.254;6.600;2024-02-28T10:08:37;39.22;;;15.15;;
51836;SDS011;38941;53.254;6.600;2024-02-28T10:10:38;35.95;;;16.75;;
51836;SDS011;38941;53.254;6.600;2024-02-28T10:12:44;35.55;;;15.07;;
51836;SDS011;38941;53.254;6.600;2024-02-28T10:14:45;43.65;;;17.10;;
51836;SDS011;38941;53.254;6.600;2024-02-28T10:16:50;34.33;;;15.35;;
51836;SDS011;38941;53.254;6.600;2024-02-28T10:18:51;43.00;;;15.48;;
51836;SDS011;38941;53.254;6.600;2024-02-28T10:20:52;36.45;;;15.45;;
51836;SDS011;38941;53.254;6.600;2024-02-28T10:22:54;34.20;;;14.95;;
51836;SDS011;38941;53.254;6.600;2024-02-28T10:24:58;33.03;;;14.70;;
51836;SDS011;38941;53.254;6.600;2024-02-28T10:27:01;35.92;;;15.98;;
51836;SDS011;38941;53.254;6.600;2024-02-28T10:29:03;33.63;;;15.48;;
51836;SDS011;38941;53.254;6.600;2024-02-28T10:31:04;38.22;;;15.35;;
51836;SDS011;38941;53.254;6.600;2024-02-28T10:33:11;37.38;;;15.30;;
51836;SDS011;38941;53.254;6.600;2024-02-28T10:35:16;32.47;;;14.25;;
51836;SDS011;38941;53.254;6.600;2024-02-28T10:37:19;32.05;;;14.30;;
51836;SDS011;38941;53.254;6.600;2024-02-28T10:39:21;30.02;;;13.50;;
51836;SDS011;38941;53.254;6.600;2024-02-28T10:41:26;32.10;;;14.93;;
51836;SDS011;38941;53.254;6.600;2024-02-28T10:43:29;33.38;;;15.07;;
51836;SDS011;38941;53.254;6.600;2024-02-28T10:45:33;33.20;;;14.35;;
51836;SDS011;38941;53.254;6.600;2024-02-28T10:47:37;34.67;;;14.80;;
51836;SDS011;38941;53.254;6.600;2024-02-28T10:49:39;32.60;;;14.05;;
51836;SDS011;38941;53.254;6.600;2024-02-28T10:51:42;33.35;;;14.15;;
51836;SDS011;38941;53.254;6.600;2024-02-28T10:53:48;40.92;;;14.88;;
51836;SDS011;38941;53.254;6.600;2024-02-28T10:55:52;33.13;;;13.80;;
51836;SDS011;38941;53.254;6.600;2024-02-28T10:58:07;34.03;;;15.13;;
51836;SDS011;38941;53.254;6.600;2024-02-28T11:00:10;32.92;;;15.73;;
51836;SDS011;38941;53.254;6.600;2024-02-28T11:02:12;34.28;;;15.45;;
51836;SDS011;38941;53.254;6.600;2024-02-28T11:04:15;35.45;;;15.93;;
51836;SDS011;38941;53.254;6.600;2024-02-28T11:06:17;33.50;;;15.02;;
51836;SDS011;38941;53.254;6.600;2024-02-28T11:08:20;32.28;;;13.98;;
51836;SDS011;38941;53.254;6.600;2024-02-28T11:10:23;35.42;;;15.63;;
51836;SDS011;38941;53.254;6.600;2024-02-28T11:12:28;34.08;;;14.93;;
51836;SDS011;38941;53.254;6.600;2024-02-28T11:14:29;34.47;;;15.40;;
51836;SDS011;38941;53.254;6.600;2024-02-28T11:16:31;36.58;;;14.93;;
51836;SDS011;38941;53.254;6.600;2024-02-28T11:18:32;31.23;;;13.63;;
51836;SDS011;38941;53.254;6.600;2024-02-28T11:20:33;35.58;;;16.00;;
51836;SDS011;38941;53.254;6.600;2024-02-28T11:22:34;31.60;;;14.55;;
51836;SDS011;38941;53.254;6.600;2024-02-28T11:24:36;31.85;;;14.75;;
51836;SDS011;38941;53.254;6.600;2024-02-28T11:26:37;33.50;;;13.85;;
51836;SDS011;38941;53.254;6.600;2024-02-28T11:28:38;31.70;;;15.27;;
51836;SDS011;38941;53.254;6.600;2024-02-28T11:30:40;31.17;;;15.30;;
51836;SDS011;38941;53.254;6.600;2024-02-28T11:32:41;30.42;;;13.75;;
51836;SDS011;38941;53.254;6.600;2024-02-28T11:34:43;32.67;;;13.82;;
51836;SDS011;38941;53.254;6.600;2024-02-28T11:36:48;33.63;;;15.57;;
51836;SDS011;38941;53.254;6.600;2024-02-28T11:38:50;30.90;;;14.80;;
51836;SDS011;38941;53.254;6.600;2024-02-28T11:40:51;34.40;;;13.68;;
51836;SDS011;38941;53.254;6.600;2024-02-28T11:42:54;35.28;;;14.63;;
51836;SDS011;38941;53.254;6.600;2024-02-28T11:44:55;29.75;;;13.55;;
51836;SDS011;38941;53.254;6.600;2024-02-28T11:46:57;31.88;;;14.13;;
51836;SDS011;38941;53.254;6.600;2024-02-28T11:48:58;29.70;;;14.27;;
51836;SDS011;38941;53.254;6.600;2024-02-28T11:51:01;28.63;;;13.75;;
51836;SDS011;38941;53.254;6.600;2024-02-28T11:53:02;31.38;;;14.88;;
51836;SDS011;38941;53.254;6.600;2024-02-28T11:55:04;32.53;;;12.70;;
51836;SDS011;38941;53.254;6.600;2024-02-28T11:57:07;27.58;;;13.25;;
51836;SDS011;38941;53.254;6.600;2024-02-28T11:59:08;25.20;;;12.85;;
51836;SDS011;38941;53.254;6.600;2024-02-28T12:01:12;27.33;;;13.13;;
51836;SDS011;38941;53.254;6.600;2024-02-28T12:03:12;24.05;;;12.98;;
51836;SDS011;38941;53.254;6.600;2024-02-28T12:05:13;26.90;;;12.73;;
51836;SDS011;38941;53.254;6.600;2024-02-28T12:07:14;26.75;;;12.02;;
51836;SDS011;38941;53.254;6.600;2024-02-28T12:09:14;23.48;;;12.55;;
51836;SDS011;38941;53.254;6.600;2024-02-28T12:11:18;27.88;;;12.30;;